Time;durP1;ratioP1;P1;durP2;ratioP2;P2;SDS_P1;SDS_P2;PMS_P1;PMS_P2;Temp;Humidity;BMP_temperature;BMP_pressure;BME280_temperature;BME280_humidity;BME280_pressure;Samples;Min_cycle;Max_cycle;Signal;HPM_P1;HPM_P2
2023/06/18 00:01:07;;;;;;;;;;;;;;;19.80;51.62;99366.78;4475424;32;32784;-78
2023/06/18 00:03:36;;;;;;;;;;;;;;;19.50;52.30;99364.91;4475392;32;33994;-77
2023/06/18 00:06:05;;;;;;;;;;;;;;;19.51;52.48;99356.06;4472169;32;33932;-80
2023/06/18 00:08:35;;;;;;;;;;;;;;;19.47;52.56;99365.03;4469667;31;34271;-77
2023/06/18 00:11:04;;;;;;;;;;;;;;;19.45;52.67;99358.19;4470050;32;33140;-79
2023/06/18 00:13:32;;;;;;;;;;;;;;;19.23;53.26;99361.13;4473765;32;34490;-77
2023/06/18 00:16:01;;;;;;;;;;;;;;;19.44;52.60;99357.34;4464444;32;33647;-77
2023/06/18 00:18:30;;;;;;;;;;;;;;;19.49;52.59;99360.56;4473840;32;33910;-80
2023/06/18 00:20:59;;;;;;;;;;;;;;;19.37;52.89;99361.22;4467901;32;33688;-78
2023/06/18 00:23:29;;;;;;;;;;;;;;;19.23;53.46;99361.13;4464958;32;33775;-78
2023/06/18 00:25:59;;;;;;;;;;;;;;;19.32;53.17;99360.63;4469621;32;33407;-79
2023/06/18 00:28:28;;;;;;;;;;;;;;;19.11;53.85;99354.75;4479174;32;34999;-78
2023/06/18 00:30:57;;;;;;;;;;;;;;;19.28;53.39;99349.44;4477746;32;34323;-78
2023/06/18 00:33:26;;;;;;;;;;;;;;;19.12;53.94;99356.47;4475154;32;34421;-78
2023/06/18 00:35:57;;;;;;;;;;;;;;;19.25;53.76;99352.22;4465004;32;34139;-77
2023/06/18 00:38:28;;;;;;;;;;;;;;;19.39;53.39;99356.75;4474846;32;34251;-80
2023/06/18 00:40:57;;;;;;;;;;;;;;;19.22;53.97;99357.66;4478771;32;32655;-78
2023/06/18 00:43:27;;;;;;;;;;;;;;;19.28;53.92;99353.84;4475935;32;34145;-80
2023/06/18 00:45:59;;;;;;;;;;;;;;;19.42;53.40;99358.34;4477440;32;34499;-78
2023/06/18 00:48:27;;;;;;;;;;;;;;;19.15;54.08;99358.91;4477268;32;34293;-78
2023/06/18 00:50:57;;;;;;;;;;;;;;;18.97;54.57;99358.97;4482914;32;33084;-78
2023/06/18 00:53:26;;;;;;;;;;;;;;;18.95;54.90;99358.22;4477019;32;33991;-80
2023/06/18 00:55:56;;;;;;;;;;;;;;;18.95;54.99;99352.09;4477168;32;35086;-77
2023/06/18 00:58:27;;;;;;;;;;;;;;;18.91;55.18;99353.19;4463081;32;34734;-79
2023/06/18 01:00:55;;;;;;;;;;;;;;;18.88;55.24;99348.94;4471818;32;33321;-79
2023/06/18 01:03:25;;;;;;;;;;;;;;;18.87;55.34;99346.37;4479319;32;35314;-78
2023/06/18 01:05:56;;;;;;;;;;;;;;;19.02;54.80;99353.47;4460418;32;33142;-78
2023/06/18 01:08:25;;;;;;;;;;;;;;;18.57;56.06;99347.03;4468954;32;34125;-79
2023/06/18 01:11:01;;;;;;;;;;;;;;;18.49;56.44;99354.47;4467044;32;33784;-79
2023/06/18 01:13:36;;;;;;;;;;;;;;;18.45;56.84;99356.38;4479608;32;34940;-78
2023/06/18 01:16:06;;;;;;;;;;;;;;;18.48;56.63;99360.63;4473435;31;33914;-78
2023/06/18 01:18:37;;;;;;;;;;;;;;;18.57;56.67;99356.69;4465335;32;33664;-79
2023/06/18 01:21:06;;;;;;;;;;;;;;;18.29;57.58;99358.97;4464308;32;33413;-78
2023/06/18 01:23:37;;;;;;;;;;;;;;;18.33;57.31;99357.84;4466237;32;33752;-80
2023/06/18 01:26:06;;;;;;;;;;;;;;;18.15;58.04;99355.31;4466953;31;34366;-78
2023/06/18 01:28:36;;;;;;;;;;;;;;;18.10;58.37;99356.41;4470176;32;34825;-78
2023/06/18 01:31:05;;;;;;;;;;;;;;;18.33;57.49;99355.22;4477877;32;34105;-78
2023/06/18 01:33:36;;;;;;;;;;;;;;;18.30;57.64;99359.81;4477506;32;33487;-78
2023/06/18 01:36:05;;;;;;;;;;;;;;;18.28;57.92;99361.66;4483353;32;34004;-80
2023/06/18 01:38:36;;;;;;;;;;;;;;;18.07;58.66;99356.56;4475022;32;34806;-78
2023/06/18 01:41:07;;;;;;;;;;;;;;;18.03;58.72;99357.62;4477267;32;33655;-80
2023/06/18 01:43:40;;;;;;;;;;;;;;;18.28;58.17;99362.50;4461837;32;33859;-77
2023/06/18 01:46:09;;;;;;;;;;;;;;;18.07;58.97;99359.19;4464626;32;34572;-78
2023/06/18 01:48:39;;;;;;;;;;;;;;;18.19;58.57;99367.34;4467650;32;34041;-78
2023/06/18 01:51:08;;;;;;;;;;;;;;;18.14;58.53;99364.94;4474695;32;33157;-79
2023/06/18 01:53:36;;;;;;;;;;;;;;;18.37;58.04;99358.56;4477000;32;34054;-79
2023/06/18 01:56:09;;;;;;;;;;;;;;;18.16;58.54;99367.50;4463499;32;34293;-80
2023/06/18 01:58:43;;;;;;;;;;;;;;;18.42;57.86;99366.22;4476528;32;34666;-78
2023/06/18 02:01:12;;;;;;;;;;;;;;;18.38;58.14;99364.66;4477972;32;34372;-78
2023/06/18 02:03:41;;;;;;;;;;;;;;;18.33;58.14;99365.72;4477384;32;35026;-77
2023/06/18 02:06:15;;;;;;;;;;;;;;;18.29;58.34;99371.22;4462054;32;34764;-79
2023/06/18 02:08:44;;;;;;;;;;;;;;;18.27;58.14;99371.31;4466879;32;35098;-79
2023/06/18 02:11:12;;;;;;;;;;;;;;;18.18;58.67;99377.00;4466579;32;33256;-80
2023/06/18 02:13:41;;;;;;;;;;;;;;;18.22;58.48;99378.56;4461729;32;34298;-77
2023/06/18 02:16:11;;;;;;;;;;;;;;;18.29;58.21;99379.09;4466290;32;34355;-80
2023/06/18 02:18:40;;;;;;;;;;;;;;;18.36;58.08;99377.00;4461617;32;35701;-77
2023/06/18 02:21:08;;;;;;;;;;;;;;;18.13;58.93;99376.41;4468375;32;33532;-78
2023/06/18 02:23:37;;;;;;;;;;;;;;;18.36;58.30;99374.38;4471756;32;34040;-77
2023/06/18 02:26:08;;;;;;;;;;;;;;;18.38;58.05;99372.53;4462394;32;34939;-78
2023/06/18 02:28:37;;;;;;;;;;;;;;;18.29;58.36;99377.34;4466131;32;34550;-78
2023/06/18 02:31:07;;;;;;;;;;;;;;;18.26;58.57;99377.47;4475396;32;34156;-80
2023/06/18 02:33:37;;;;;;;;;;;;;;;18.33;58.34;99384.13;4478300;32;33619;-78
2023/06/18 02:36:05;;;;;;;;;;;;;;;18.63;57.46;99391.41;4465950;31;33427;-79
2023/06/18 02:38:34;;;;;;;;;;;;;;;18.48;57.70;99389.53;4461721;32;33574;-78
2023/06/18 02:41:03;;;;;;;;;;;;;;;18.36;58.12;99393.63;4473041;32;34050;-77
2023/06/18 02:43:32;;;;;;;;;;;;;;;18.31;58.51;99393.00;4465748;32;34012;-78
2023/06/18 02:46:01;;;;;;;;;;;;;;;18.30;58.48;99396.56;4461385;32;34998;-78
2023/06/18 02:48:30;;;;;;;;;;;;;;;18.08;59.09;99396.78;4474311;32;34475;-77
2023/06/18 02:51:02;;;;;;;;;;;;;;;18.14;59.06;99396.47;4474346;32;33261;-78
2023/06/18 02:53:31;;;;;;;;;;;;;;;18.25;58.73;99399.41;4470030;32;34246;-77
2023/06/18 02:56:01;;;;;;;;;;;;;;;18.20;58.87;99404.03;4465911;32;34575;-77
2023/06/18 02:58:29;;;;;;;;;;;;;;;17.92;59.68;99402.75;4465276;32;34586;-78
2023/06/18 03:00:59;;;;;;;;;;;;;;;18.15;59.07;99413.94;4471000;32;33279;-80
2023/06/18 03:03:28;;;;;;;;;;;;;;;17.99;59.60;99407.72;4470488;32;33224;-77
2023/06/18 03:05:58;;;;;;;;;;;;;;;18.06;59.53;99409.13;4465718;32;33256;-80
2023/06/18 03:08:28;;;;;;;;;;;;;;;17.99;59.78;99418.22;4460065;32;34110;-78
2023/06/18 03:10:57;;;;;;;;;;;;;;;17.78;60.29;99409.53;4464329;32;32834;-80
2023/06/18 03:13:26;;;;;;;;;;;;;;;17.86;60.23;99417.97;4467114;32;34855;-79
2023/06/18 03:15:55;;;;;;;;;;;;;;;18.07;59.81;99418.69;4482012;32;33760;-78
2023/06/18 03:18:24;;;;;;;;;;;;;;;18.23;59.51;99417.00;4471481;32;34717;-78
2023/06/18 03:20:55;;;;;;;;;;;;;;;18.29;59.31;99416.72;4476809;32;33716;-78
2023/06/18 03:23:24;;;;;;;;;;;;;;;18.35;59.01;99418.19;4476837;32;34149;-78
2023/06/18 03:25:54;;;;;;;;;;;;;;;18.38;58.73;99419.81;4470212;32;33850;-79
2023/06/18 03:28:24;;;;;;;;;;;;;;;18.46;58.81;99420.28;4466691;32;33311;-78
2023/06/18 03:30:53;;;;;;;;;;;;;;;18.53;58.44;99419.91;4464184;32;33210;-78
2023/06/18 03:33:21;;;;;;;;;;;;;;;18.44;58.94;99414.28;4476571;32;33552;-80
2023/06/18 03:35:51;;;;;;;;;;;;;;;18.58;58.75;99417.06;4476540;32;34941;-79
2023/06/18 03:38:20;;;;;;;;;;;;;;;18.29;59.23;99414.09;4482105;32;33548;-78
2023/06/18 03:40:49;;;;;;;;;;;;;;;18.43;58.69;99423.91;4478827;32;34050;-78
2023/06/18 03:43:19;;;;;;;;;;;;;;;18.36;59.08;99425.12;4467941;32;34794;-80
2023/06/18 03:45:49;;;;;;;;;;;;;;;18.23;59.39;99424.91;4460691;32;34338;-78
2023/06/18 03:48:18;;;;;;;;;;;;;;;18.46;58.43;99429.03;4459824;32;34611;-77
2023/06/18 03:50:47;;;;;;;;;;;;;;;18.62;58.27;99428.25;4470037;32;32841;-77
2023/06/18 03:53:16;;;;;;;;;;;;;;;18.63;58.24;99433.44;4460208;32;33858;-78
2023/06/18 03:55:46;;;;;;;;;;;;;;;18.59;58.66;99431.88;4465456;32;33885;-78
2023/06/18 03:58:15;;;;;;;;;;;;;;;18.78;57.92;99434.47;4471559;32;33337;-78
2023/06/18 04:00:46;;;;;;;;;;;;;;;18.74;57.99;99435.50;4473867;32;32922;-78
2023/06/18 04:03:15;;;;;;;;;;;;;;;18.98;57.27;99431.63;4463013;32;32943;-79
2023/06/18 04:05:44;;;;;;;;;;;;;;;19.19;56.90;99424.41;4474706;32;34510;-80
2023/06/18 04:08:12;;;;;;;;;;;;;;;19.47;56.11;99425.56;4460337;32;32514;-78
2023/06/18 04:10:41;;;;;;;;;;;;;;;19.94;54.44;99430.03;4459863;32;32849;-80
2023/06/18 04:13:13;;;;;;;;;;;;;;;19.81;54.52;99439.53;4467230;32;34632;-79
2023/06/18 04:15:42;;;;;;;;;;;;;;;19.93;54.71;99446.75;4464293;32;34270;-78
2023/06/18 04:18:13;;;;;;;;;;;;;;;20.11;54.08;99439.63;4467073;32;33788;-77
2023/06/18 04:20:42;;;;;;;;;;;;;;;20.85;51.92;99438.88;4467372;32;33526;-78
2023/06/18 04:23:12;;;;;;;;;;;;;;;21.70;49.52;99436.37;4474794;32;33950;-77
2023/06/18 04:25:44;;;;;;;;;;;;;;;21.94;48.61;99447.16;4477797;32;33285;-79
2023/06/18 04:28:13;;;;;;;;;;;;;;;21.81;48.95;99444.44;4463350;32;34456;-79
2023/06/18 04:30:43;;;;;;;;;;;;;;;21.83;49.04;99445.19;4462579;32;34165;-78
2023/06/18 04:33:14;;;;;;;;;;;;;;;22.41;47.53;99445.88;4478058;32;34213;-78
2023/06/18 04:35:44;;;;;;;;;;;;;;;22.57;47.08;99446.56;4484072;32;33645;-78
2023/06/18 04:38:12;;;;;;;;;;;;;;;23.18;45.95;99446.88;4441073;32;1172384;-78
2023/06/18 04:40:41;;;;;;;;;;;;;;;23.87;43.69;99448.25;4465471;32;32845;-79
2023/06/18 04:43:10;;;;;;;;;;;;;;;23.68;44.22;99448.69;4474302;32;33674;-78
2023/06/18 04:45:39;;;;;;;;;;;;;;;23.53;44.86;99453.28;4483651;32;34191;-78
2023/06/18 04:48:09;;;;;;;;;;;;;;;23.50;44.12;99454.34;4477773;32;33860;-78
2023/06/18 04:50:40;;;;;;;;;;;;;;;23.25;44.74;99449.94;4477765;32;33567;-78
2023/06/18 04:53:09;;;;;;;;;;;;;;;23.41;44.77;99452.34;4477839;32;34152;-79
2023/06/18 04:55:39;;;;;;;;;;;;;;;23.39;44.66;99465.72;4474334;32;34795;-79
2023/06/18 04:58:08;;;;;;;;;;;;;;;23.23;45.15;99458.94;4480912;32;34955;-78
2023/06/18 05:00:37;;;;;;;;;;;;;;;22.77;45.84;99470.81;4478303;32;33156;-78
2023/06/18 05:03:06;;;;;;;;;;;;;;;22.65;46.46;99461.91;4475891;32;33902;-77
2023/06/18 05:05:35;;;;;;;;;;;;;;;23.04;45.75;99469.94;4464076;32;35060;-78
2023/06/18 05:08:08;;;;;;;;;;;;;;;23.01;45.18;99476.28;4474688;32;33894;-80
2023/06/18 05:10:37;;;;;;;;;;;;;;;22.87;46.01;99473.69;4470201;32;33065;-80
2023/06/18 05:13:06;;;;;;;;;;;;;;;22.97;45.93;99478.25;4470816;32;34851;-78
2023/06/18 05:15:35;;;;;;;;;;;;;;;22.93;45.54;99484.72;4465263;32;33964;-78
2023/06/18 05:18:05;;;;;;;;;;;;;;;22.82;45.86;99489.03;4468578;32;34956;-78
2023/06/18 05:20:33;;;;;;;;;;;;;;;22.31;47.10;99487.09;4476121;32;33330;-78
2023/06/18 05:23:02;;;;;;;;;;;;;;;22.59;46.49;99480.81;4467111;32;33437;-78
2023/06/18 05:25:36;;;;;;;;;;;;;;;22.34;47.62;99489.53;4462108;32;33924;-78
2023/06/18 05:28:05;;;;;;;;;;;;;;;22.42;47.47;99491.66;4475696;32;34689;-78
2023/06/18 05:30:35;;;;;;;;;;;;;;;22.56;47.60;99495.09;4468982;32;33488;-80
2023/06/18 05:33:04;;;;;;;;;;;;;;;22.34;47.41;99484.25;4456291;32;33382;-79
2023/06/18 05:35:33;;;;;;;;;;;;;;;22.36;47.60;99488.47;4476253;32;33760;-78
2023/06/18 05:38:02;;;;;;;;;;;;;;;22.10;48.17;99490.13;4473359;32;34592;-78
2023/06/18 05:40:33;;;;;;;;;;;;;;;22.39;48.67;99495.34;4466747;32;33504;-80
2023/06/18 05:43:02;;;;;;;;;;;;;;;22.50;48.40;99498.16;4462707;32;33725;-79
2023/06/18 05:45:33;;;;;;;;;;;;;;;22.37;48.46;99503.41;4465116;32;33685;-78
2023/06/18 05:48:02;;;;;;;;;;;;;;;22.58;48.58;99500.28;4464050;32;33750;-80
2023/06/18 05:50:33;;;;;;;;;;;;;;;22.58;48.22;99503.78;4467329;32;33932;-79
2023/06/18 05:53:02;;;;;;;;;;;;;;;22.55;48.82;99506.63;4470966;31;34248;-79
2023/06/18 05:55:31;;;;;;;;;;;;;;;22.83;48.04;99509.22;4472659;31;34637;-80
2023/06/18 05:58:01;;;;;;;;;;;;;;;22.75;48.22;99501.81;4473143;31;33538;-77
2023/06/18 06:00:30;;;;;;;;;;;;;;;22.82;48.20;99513.69;4453445;32;32773;-80
2023/06/18 06:02:59;;;;;;;;;;;;;;;22.23;49.29;99513.13;4471968;32;33931;-80
2023/06/18 06:05:27;;;;;;;;;;;;;;;22.15;50.73;99506.53;4475257;32;33635;-79
2023/06/18 06:07:56;;;;;;;;;;;;;;;22.23;50.27;99521.06;4466865;32;33776;-79
2023/06/18 06:10:26;;;;;;;;;;;;;;;22.04;50.83;99521.37;4467523;32;33471;-77
2023/06/18 06:12:54;;;;;;;;;;;;;;;22.30;49.65;99517.97;4469822;32;33553;-78
2023/06/18 06:15:24;;;;;;;;;;;;;;;22.23;49.94;99526.34;4469032;32;34242;-79
2023/06/18 06:17:55;;;;;;;;;;;;;;;22.16;49.42;99526.72;4461614;32;34583;-78
2023/06/18 06:20:24;;;;;;;;;;;;;;;22.06;51.08;99519.47;4474719;32;33580;-80
2023/06/18 06:22:54;;;;;;;;;;;;;;;22.06;49.60;99524.75;4461536;32;32220;-78
2023/06/18 06:25:24;;;;;;;;;;;;;;;22.16;49.42;99520.59;4467789;32;33562;-80
2023/06/18 06:27:53;;;;;;;;;;;;;;;22.38;48.25;99517.47;4469536;32;34891;-81
2023/06/18 06:30:21;;;;;;;;;;;;;;;22.35;48.62;99523.78;4467826;32;33411;-78
2023/06/18 06:32:54;;;;;;;;;;;;;;;22.36;47.15;99514.91;4476023;32;33025;-81
2023/06/18 06:35:24;;;;;;;;;;;;;;;22.07;48.99;99518.53;4477740;32;33523;-81
2023/06/18 06:37:53;;;;;;;;;;;;;;;22.23;49.25;99521.06;4482865;32;34140;-83
2023/06/18 06:40:23;;;;;;;;;;;;;;;22.38;48.97;99522.75;4472781;32;32860;-79
2023/06/18 06:42:52;;;;;;;;;;;;;;;22.56;48.83;99532.09;4447058;32;32136;-80
2023/06/18 06:45:21;;;;;;;;;;;;;;;22.50;48.68;99524.59;4461529;32;34090;-78
2023/06/18 06:47:51;;;;;;;;;;;;;;;22.49;49.09;99530.81;4467109;32;33331;-81
2023/06/18 06:50:24;;;;;;;;;;;;;;;22.99;47.43;99537.22;4475908;32;33197;-78
2023/06/18 06:52:53;;;;;;;;;;;;;;;23.07;47.41;99534.06;4478156;32;33523;-77
2023/06/18 06:55:22;;;;;;;;;;;;;;;23.02;48.01;99533.53;4476502;32;34778;-77
2023/06/18 06:57:51;;;;;;;;;;;;;;;22.86;47.98;99532.81;4476838;32;33822;-79
2023/06/18 07:00:20;;;;;;;;;;;;;;;22.80;47.54;99527.00;4482829;32;33188;-80
2023/06/18 07:02:49;;;;;;;;;;;;;;;23.00;47.68;99523.06;4459824;32;34079;-78
2023/06/18 07:05:18;;;;;;;;;;;;;;;23.18;46.84;99530.72;4467000;32;33620;-79
2023/06/18 07:07:48;;;;;;;;;;;;;;;23.03;44.85;99523.78;4472759;32;34410;-78
2023/06/18 07:10:17;;;;;;;;;;;;;;;22.75;44.34;99534.38;4474919;32;33337;-78
2023/06/18 07:12:46;;;;;;;;;;;;;;;23.34;44.33;99528.72;4472212;32;34521;-81
2023/06/18 07:15:15;;;;;;;;;;;;;;;23.20;45.37;99528.81;4473645;32;35391;-81
2023/06/18 07:17:44;;;;;;;;;;;;;;;23.41;44.94;99537.94;4471196;32;34007;-81
2023/06/18 07:20:13;;;;;;;;;;;;;;;23.36;45.43;99523.28;4480442;32;34003;-81
2023/06/18 07:22:42;;;;;;;;;;;;;;;23.30;44.20;99521.94;4471546;32;34995;-80
2023/06/18 07:25:12;;;;;;;;;;;;;;;23.49;44.86;99518.03;4476034;32;35634;-80
2023/06/18 07:27:41;;;;;;;;;;;;;;;23.73;43.49;99516.34;4471504;32;34826;-79
2023/06/18 07:30:12;;;;;;;;;;;;;;;23.60;43.57;99510.16;4475890;32;33756;-81
2023/06/18 07:32:42;;;;;;;;;;;;;;;23.71;41.37;99517.38;4476206;32;34172;-81
2023/06/18 07:35:12;;;;;;;;;;;;;;;23.71;41.52;99518.19;4471214;32;34097;-80
2023/06/18 07:37:40;;;;;;;;;;;;;;;23.80;41.80;99512.28;4446933;32;32692;-80
2023/06/18 07:40:09;;;;;;;;;;;;;;;23.78;41.05;99508.91;4468655;32;33784;-79
2023/06/18 07:42:39;;;;;;;;;;;;;;;23.79;42.46;99515.03;4470610;32;33621;-80
2023/06/18 07:45:08;;;;;;;;;;;;;;;23.83;42.02;99513.87;4466751;32;35555;-81
2023/06/18 07:47:37;;;;;;;;;;;;;;;23.99;40.98;99510.97;4464659;32;34701;-81
2023/06/18 07:50:08;;;;;;;;;;;;;;;24.09;40.85;99509.38;4471519;32;33122;-80
2023/06/18 07:52:38;;;;;;;;;;;;;;;24.00;40.64;99504.72;4474903;32;35894;-80
2023/06/18 07:55:07;;;;;;;;;;;;;;;24.31;40.54;99506.00;4483114;32;34771;-81
2023/06/18 07:57:36;;;;;;;;;;;;;;;24.40;39.66;99512.41;4471369;32;34404;-81
2023/06/18 08:00:08;;;;;;;;;;;;;;;24.41;40.69;99514.97;4470834;32;33287;-82
2023/06/18 08:02:39;;;;;;;;;;;;;;;24.74;38.88;99512.59;4473342;32;33719;-81
2023/06/18 08:05:08;;;;;;;;;;;;;;;24.64;39.56;99509.78;4483242;32;34262;-80
2023/06/18 08:07:36;;;;;;;;;;;;;;;24.70;39.02;99509.34;4478277;32;34519;-81
2023/06/18 08:10:06;;;;;;;;;;;;;;;24.67;39.17;99502.47;4478268;32;32975;-80
2023/06/18 08:12:34;;;;;;;;;;;;;;;24.83;40.30;99511.91;4478420;32;33795;-81
2023/06/18 08:15:03;;;;;;;;;;;;;;;24.75;38.55;99509.84;4473269;32;34210;-80
2023/06/18 08:17:33;;;;;;;;;;;;;;;24.92;39.60;99513.87;4483907;32;34727;-81
2023/06/18 08:20:03;;;;;;;;;;;;;;;25.06;38.80;99510.19;4470219;32;32494;-81
2023/06/18 08:22:32;;;;;;;;;;;;;;;24.88;38.54;99512.41;4471697;32;33946;-80
2023/06/18 08:25:01;;;;;;;;;;;;;;;25.19;38.53;99513.63;4477882;32;34616;-81
2023/06/18 08:27:29;;;;;;;;;;;;;;;25.23;37.69;99507.13;4482300;32;33689;-81
2023/06/18 08:29:58;;;;;;;;;;;;;;;25.06;37.92;99508.38;4462377;32;34145;-80
2023/06/18 08:32:26;;;;;;;;;;;;;;;25.11;38.06;99511.53;4465174;32;33878;-79
2023/06/18 08:34:57;;;;;;;;;;;;;;;25.00;38.22;99502.69;4478433;32;34068;-80
2023/06/18 08:37:26;;;;;;;;;;;;;;;25.55;37.26;99504.59;4481898;32;33852;-80
2023/06/18 08:39:55;;;;;;;;;;;;;;;25.59;38.50;99499.03;4477369;32;34007;-80
2023/06/18 08:42:24;;;;;;;;;;;;;;;25.80;37.48;99502.66;4473005;32;33662;-80
2023/06/18 08:44:53;;;;;;;;;;;;;;;25.72;36.65;99500.63;4477369;32;33999;-79
2023/06/18 08:47:23;;;;;;;;;;;;;;;25.53;37.54;99506.53;4472944;32;35219;-80
2023/06/18 08:49:52;;;;;;;;;;;;;;;25.52;36.67;99501.34;4473439;32;33219;-80
2023/06/18 08:52:22;;;;;;;;;;;;;;;25.47;36.35;99500.88;4476677;32;32591;-80
2023/06/18 08:54:52;;;;;;;;;;;;;;;25.42;35.82;99501.22;4473801;32;33854;-78
2023/06/18 08:57:24;;;;;;;;;;;;;;;25.56;36.69;99505.44;4462209;32;33931;-79
2023/06/18 08:59:53;;;;;;;;;;;;;;;25.58;33.61;99506.16;4470544;32;32946;-80
2023/06/18 09:02:22;;;;;;;;;;;;;;;25.76;35.35;99507.38;4473221;32;34782;-78
2023/06/18 09:04:51;;;;;;;;;;;;;;;25.73;36.09;99509.41;4470267;32;33710;-79
2023/06/18 09:07:19;;;;;;;;;;;;;;;26.03;37.24;99502.69;4477531;32;33926;-80
2023/06/18 09:09:50;;;;;;;;;;;;;;;26.06;33.81;99497.94;4477700;32;33989;-78
2023/06/18 09:12:19;;;;;;;;;;;;;;;26.39;36.32;99499.69;4480314;32;33158;-79
2023/06/18 09:14:48;;;;;;;;;;;;;;;26.24;33.24;99506.25;4465352;32;35209;-77
2023/06/18 09:17:16;;;;;;;;;;;;;;;26.66;31.32;99501.06;4468852;32;34158;-78
2023/06/18 09:19:46;;;;;;;;;;;;;;;26.53;31.63;99500.34;4459626;32;32920;-80
2023/06/18 09:22:14;;;;;;;;;;;;;;;26.64;28.53;99503.00;4466296;32;33545;-78
2023/06/18 09:24:44;;;;;;;;;;;;;;;26.54;30.92;99496.75;4460241;32;34970;-80
2023/06/18 09:27:14;;;;;;;;;;;;;;;26.50;31.29;99500.59;4460124;32;33978;-79
2023/06/18 09:29:43;;;;;;;;;;;;;;;26.59;28.41;99498.06;4462514;32;33092;-78
2023/06/18 09:32:12;;;;;;;;;;;;;;;26.67;30.06;99500.06;4461320;32;34474;-77
2023/06/18 09:34:42;;;;;;;;;;;;;;;26.80;30.51;99507.91;4467272;32;33925;-80
2023/06/18 09:37:13;;;;;;;;;;;;;;;26.85;31.63;99510.19;4462105;32;34244;-80
2023/06/18 09:39:43;;;;;;;;;;;;;;;26.74;30.32;99506.59;4461916;32;33539;-80
2023/06/18 09:42:14;;;;;;;;;;;;;;;26.67;29.20;99494.75;4462039;32;34086;-81
2023/06/18 09:44:47;;;;;;;;;;;;;;;26.41;31.17;99502.22;4467309;32;35091;-80
2023/06/18 09:47:16;;;;;;;;;;;;;;;26.80;30.15;99507.91;4461671;32;34522;-82
2023/06/18 09:49:46;;;;;;;;;;;;;;;26.68;31.06;99492.97;4461919;32;33174;-82
2023/06/18 09:52:15;;;;;;;;;;;;;;;26.86;31.66;99499.38;4462188;32;33565;-80
2023/06/18 09:54:44;;;;;;;;;;;;;;;26.85;30.92;99496.88;4461785;32;34737;-81
2023/06/18 09:57:15;;;;;;;;;;;;;;;26.66;31.64;99498.41;4467531;32;33676;-79
2023/06/18 09:59:44;;;;;;;;;;;;;;;26.58;32.38;99492.88;4461883;32;33182;-80
2023/06/18 10:02:14;;;;;;;;;;;;;;;26.70;32.47;99504.31;4461922;32;34586;-78
2023/06/18 10:04:43;;;;;;;;;;;;;;;26.70;32.01;99505.16;4461041;32;34018;-80
2023/06/18 10:07:15;;;;;;;;;;;;;;;27.13;32.15;99508.69;4467336;32;34785;-80
2023/06/18 10:09:46;;;;;;;;;;;;;;;27.23;31.71;99504.28;4462036;32;34006;-78
2023/06/18 10:12:16;;;;;;;;;;;;;;;27.27;31.58;99499.56;4461833;32;34170;-81
2023/06/18 10:14:45;;;;;;;;;;;;;;;27.35;30.02;99503.25;4460455;32;36629;-80
2023/06/18 10:17:15;;;;;;;;;;;;;;;26.97;30.57;99496.69;4461656;32;34776;-79
2023/06/18 10:19:45;;;;;;;;;;;;;;;27.54;29.79;99486.50;4467581;32;33222;-79
2023/06/18 10:22:15;;;;;;;;;;;;;;;27.72;30.11;99493.88;4461701;32;33206;-80
2023/06/18 10:24:57;;;;;;;;;;;;;;;27.63;30.18;99498.19;4461571;32;33947;-78
2023/06/18 10:27:27;;;;;;;;;;;;;;;27.29;30.65;99495.78;4461893;32;33758;-78
2023/06/18 10:29:57;;;;;;;;;;;;;;;27.50;29.67;99492.22;4467317;32;34231;-79
2023/06/18 10:32:27;;;;;;;;;;;;;;;27.60;29.19;99488.63;4466156;32;33968;-80
2023/06/18 10:34:56;;;;;;;;;;;;;;;27.54;29.60;99497.16;4461527;32;35030;-81
2023/06/18 10:37:25;;;;;;;;;;;;;;;27.62;29.18;99502.69;4461314;32;34889;-79
2023/06/18 10:39:56;;;;;;;;;;;;;;;27.70;28.73;99498.50;4461640;32;32973;-81
2023/06/18 10:42:25;;;;;;;;;;;;;;;27.57;28.95;99502.22;4467670;32;34224;-82
2023/06/18 10:44:57;;;;;;;;;;;;;;;27.16;29.95;99509.28;4460259;32;34251;-80
2023/06/18 10:47:27;;;;;;;;;;;;;;;27.49;29.85;99507.38;4461839;32;35334;-81
2023/06/18 10:50:15;;;;;;;;;;;;;;;27.66;29.75;99505.91;4461320;32;32860;-78
2023/06/18 10:52:44;;;;;;;;;;;;;;;27.74;27.89;99503.44;4461521;32;34627;-77
2023/06/18 10:55:13;;;;;;;;;;;;;;;27.24;29.74;99493.50;4467259;32;34158;-78
2023/06/18 10:57:42;;;;;;;;;;;;;;;27.78;29.66;99490.66;4461557;32;33752;-78
2023/06/18 11:00:19;;;;;;;;;;;;;;;27.86;29.12;99494.38;4461274;32;33042;-81
2023/06/18 11:02:49;;;;;;;;;;;;;;;27.97;28.62;99490.75;4461635;32;34789;-79
2023/06/18 11:05:41;;;;;;;;;;;;;;;28.20;29.43;99498.53;4466972;32;33862;-80
2023/06/18 11:08:10;;;;;;;;;;;;;;;28.39;29.02;99498.56;4467021;32;33599;-79
2023/06/18 11:10:40;;;;;;;;;;;;;;;28.04;30.16;99494.56;4461833;32;34144;-80
2023/06/18 11:13:09;;;;;;;;;;;;;;;28.65;30.37;99492.69;4461259;32;34336;-80
2023/06/18 11:15:52;;;;;;;;;;;;;;;28.82;28.99;99494.62;4461392;32;35545;-79
2023/06/18 11:18:22;;;;;;;;;;;;;;;28.39;28.94;99497.69;4461559;32;33999;-79
2023/06/18 11:20:51;;;;;;;;;;;;;;;28.28;29.61;99483.50;4466774;32;33786;-79
2023/06/18 11:23:19;;;;;;;;;;;;;;;28.74;29.43;99491.84;4461004;32;34986;-79
2023/06/18 11:25:48;;;;;;;;;;;;;;;28.71;29.67;99486.78;4460305;32;34217;-79
2023/06/18 11:28:17;;;;;;;;;;;;;;;28.85;30.02;99489.03;4461362;32;33909;-80
2023/06/18 11:30:48;;;;;;;;;;;;;;;29.20;29.11;99481.41;4466671;32;33685;-78
2023/06/18 11:33:21;;;;;;;;;;;;;;;29.48;28.38;99482.28;4464902;32;34753;-78
2023/06/18 11:35:50;;;;;;;;;;;;;;;29.77;27.85;99479.53;4460783;32;34146;-80
2023/06/18 11:38:19;;;;;;;;;;;;;;;30.12;27.74;99472.56;4461145;32;33966;-78
2023/06/18 11:40:48;;;;;;;;;;;;;;;30.29;27.57;99476.28;4463048;32;33681;-78
2023/06/18 11:43:18;;;;;;;;;;;;;;;29.97;27.85;99477.56;4466527;32;33755;-79
2023/06/18 11:45:48;;;;;;;;;;;;;;;30.27;28.22;99471.06;4460868;32;34264;-79
2023/06/18 11:48:18;;;;;;;;;;;;;;;30.60;27.21;99466.84;4460851;32;34024;-78
2023/06/18 11:50:50;;;;;;;;;;;;;;;30.75;26.97;99467.13;4461132;32;32895;-78
2023/06/18 11:53:19;;;;;;;;;;;;;;;30.93;26.55;99461.78;4466539;32;34556;-80
2023/06/18 11:55:47;;;;;;;;;;;;;;;30.75;26.85;99471.66;4460756;32;34655;-80
2023/06/18 11:58:16;;;;;;;;;;;;;;;30.76;27.69;99466.16;4460811;32;34530;-79
2023/06/18 12:00:45;;;;;;;;;;;;;;;31.10;26.91;99464.56;4460721;32;33201;-79
2023/06/18 12:03:16;;;;;;;;;;;;;;;31.54;26.61;99464.53;4464667;32;33859;-80
2023/06/18 12:05:44;;;;;;;;;;;;;;;31.83;26.07;99451.56;4466134;32;35071;-78
2023/06/18 12:08:14;;;;;;;;;;;;;;;32.13;26.12;99451.16;4460348;32;34480;-78
2023/06/18 12:10:43;;;;;;;;;;;;;;;32.52;25.16;99454.06;4461725;32;33079;-79
2023/06/18 12:13:15;;;;;;;;;;;;;;;32.65;26.44;99449.03;4460169;32;34888;-77
2023/06/18 12:15:46;;;;;;;;;;;;;;;32.23;26.05;99452.66;4464623;32;34217;-78
2023/06/18 12:18:18;;;;;;;;;;;;;;;32.30;25.34;99440.25;4474597;32;34314;-78
2023/06/18 12:20:47;;;;;;;;;;;;;;;31.03;26.88;99448.28;4476024;32;32864;-79
2023/06/18 12:23:16;;;;;;;;;;;;;;;30.59;26.45;99441.09;4475755;32;34565;-79
2023/06/18 12:25:44;;;;;;;;;;;;;;;30.16;27.45;99442.66;4479753;32;33993;-77
2023/06/18 12:28:13;;;;;;;;;;;;;;;30.29;27.09;99444.16;4481025;32;34136;-78
2023/06/18 12:30:42;;;;;;;;;;;;;;;30.44;27.22;99442.63;4475665;32;33194;-78
2023/06/18 12:33:12;;;;;;;;;;;;;;;30.68;25.95;99436.63;4475631;32;34796;-78
2023/06/18 12:35:48;;;;;;;;;;;;;;;30.98;26.31;99437.22;4475784;32;35187;-78
2023/06/18 12:38:17;;;;;;;;;;;;;;;31.37;26.26;99432.22;4482294;32;33988;-77
2023/06/18 12:40:47;;;;;;;;;;;;;;;31.34;26.09;99431.69;4479216;32;33499;-79
2023/06/18 12:43:17;;;;;;;;;;;;;;;31.33;27.33;99433.53;4478313;32;33853;-78
2023/06/18 12:45:47;;;;;;;;;;;;;;;31.40;26.68;99433.78;4478322;32;35198;-78
2023/06/18 12:48:16;;;;;;;;;;;;;;;31.20;26.85;99422.44;4482816;32;33679;-78
2023/06/18 12:50:47;;;;;;;;;;;;;;;31.09;26.86;99415.50;4483082;32;33148;-78
2023/06/18 12:53:16;;;;;;;;;;;;;;;31.26;26.14;99429.81;4477894;32;34084;-78
2023/06/18 12:55:47;;;;;;;;;;;;;;;31.49;25.78;99429.31;4473955;32;33805;-78
2023/06/18 12:58:17;;;;;;;;;;;;;;;31.54;25.98;99432.34;4462183;32;35007;-80
2023/06/18 13:00:46;;;;;;;;;;;;;;;31.74;25.25;99420.34;4467865;32;33010;-77